หน้าหลัก
METAR-TAF:

METAR-TAF

ท่าอากาศยาน :

Cortez, โคโลราโด, สหรัฐอเมริกา

ละติจูด: 37-18-23N, ลองจิจูด: 108-37-32W, ความสูง: 1803 ม.

การสังเกตสภาพอากาศปัจจุบัน

รายงานได้ทำขึ้นเมื่อ 23 นาทีที่แล้ว ณ เวลา 15:53 UTC
ลมสงบ
อุณหภูมิ 28°C
ความชื้น 19%
ความกดอากาศ 1023 hPa
ทัศนวิสัย: 16.1 กม.
ท้องฟ้าแจ่มใส

METAR: KCEZ 121553Z AUTO 00000KT 10SM CLR 28/02 A3021 RMK AO2 SLP141 T02780022

เวลา: 10:16 (16:16 UTC)


TAF: หายไป

สังเกตการณ์สภาพอากาศและพยากรณ์อากาศของสนามบินมากกว่า 4000 แห่ง (รายงาน METAR และ TAF).

สถานีที่ดูได้จะแสดงไว้ด้วยจุดสีเหลืองและสีแดงบนแผนที่.

เลื่อนเมาส์ไปเหนือจุดเพื่อดูชื่อสถานี.

แล้วคลิกเพื่อดูสังเกตการณ์และการพยากรณ์สภาพอากาศ.

ในการเปลี่ยนแผนที่: คลิกที่ปุ่มสีเขียวที่มีกากบาทสีดำเพื่อซูมเข้า; ที่ปุ่มสีเขียวที่มีขีดเพื่อซูมออก; หรือที่ลูกศรสีเขียวเพื่อไปยังแผนที่ที่อยู่ติดกัน.


METAR-TAF: